Terminal Aerodrome Forecast
Issued by NWS

Home | Current Version | Previous Version | Text Only | Print | Product List | Glossary On
Versions: 1 2 3 4 5 6 7 8 9 10 11 12 13 14 15
000
FTUS43 KMQT 301126
TAFCMX
TAF
KCMX 301126Z 3012/3112 29019G32KT P6SM FEW110
     FM301700 28018G26KT P6SM FEW080
     FM310200 27012KT P6SM FEW080=

USA.gov is the U.S. government's official web portal to all federal, state and local government web resources and services.